Terminal Aerodrome Forecast
Issued by NWS Hastings, NE

Home | Current Version | Previous Version | Text Only | Print | Product List | Glossary On
Versions: 1 2 3 4 5 6 7 8 9 10 11 12 13 14 15 16 17 18 19 20
000
FTUS43 KGID 160521
TAFGRI
TAF
KGRI 160521Z 1606/1706 18017KT P6SM SCT120 WS007/21050KT
     FM161400 26017G25KT P6SM BKN120
     FM161700 31022G32KT P6SM SCT040
     FM170100 35010KT P6SM SCT250=

USA.gov is the U.S. government's official web portal to all federal, state and local government web resources and services.